sensor_id;sensor_type;location;lat;lon;timestamp;pressure;altitude;pressure_sealevel;temperature;humidity
34931;BME280;21134;49.646;8.560;2023-07-09T00:02:17;100678.84;;;20.71;79.44
34931;BME280;21134;49.646;8.560;2023-07-09T00:04:44;100679.16;;;20.63;80.14
34931;BME280;21134;49.646;8.560;2023-07-09T00:07:17;100674.69;;;20.66;80.01
34931;BME280;21134;49.646;8.560;2023-07-09T00:09:45;100672.78;;;20.70;79.87
34931;BME280;21134;49.646;8.560;2023-07-09T00:12:13;100678.72;;;20.74;79.71
34931;BME280;21134;49.646;8.560;2023-07-09T00:14:40;100684.47;;;20.82;79.55
34931;BME280;21134;49.646;8.560;2023-07-09T00:17:09;100685.50;;;20.78;80.02
34931;BME280;21134;49.646;8.560;2023-07-09T00:19:36;100689.19;;;20.72;81.09
34931;BME280;21134;49.646;8.560;2023-07-09T00:22:04;100693.59;;;20.70;81.04
34931;BME280;21134;49.646;8.560;2023-07-09T00:24:36;100688.75;;;20.61;81.52
34931;BME280;21134;49.646;8.560;2023-07-09T00:27:08;100696.69;;;20.58;81.67
34931;BME280;21134;49.646;8.560;2023-07-09T00:29:34;100701.22;;;20.53;81.93
34931;BME280;21134;49.646;8.560;2023-07-09T00:32:01;100702.16;;;20.52;81.98
34931;BME280;21134;49.646;8.560;2023-07-09T00:34:27;100693.50;;;20.50;81.85
34931;BME280;21134;49.646;8.560;2023-07-09T00:36:54;100689.16;;;20.50;82.24
34931;BME280;21134;49.646;8.560;2023-07-09T00:39:22;100699.88;;;20.42;82.21
34931;BME280;21134;49.646;8.560;2023-07-09T00:41:49;100695.38;;;20.46;82.17
34931;BME280;21134;49.646;8.560;2023-07-09T00:44:26;100702.38;;;20.44;81.80
34931;BME280;21134;49.646;8.560;2023-07-09T00:47:23;100707.06;;;20.36;82.05
34931;BME280;21134;49.646;8.560;2023-07-09T00:49:59;100703.31;;;20.19;82.88
34931;BME280;21134;49.646;8.560;2023-07-09T00:52:33;100703.44;;;20.16;83.11
34931;BME280;21134;49.646;8.560;2023-07-09T00:55:04;100703.44;;;20.16;83.17
34931;BME280;21134;49.646;8.560;2023-07-09T00:57:33;100702.59;;;20.16;83.15
34931;BME280;21134;49.646;8.560;2023-07-09T01:00:09;100705.25;;;20.14;82.76
34931;BME280;21134;49.646;8.560;2023-07-09T01:02:38;100709.00;;;20.07;83.21
34931;BME280;21134;49.646;8.560;2023-07-09T01:05:09;100712.66;;;20.02;83.01
34931;BME280;21134;49.646;8.560;2023-07-09T01:07:37;100720.50;;;20.00;83.10
34931;BME280;21134;49.646;8.560;2023-07-09T01:10:03;100717.16;;;19.96;83.38
34931;BME280;21134;49.646;8.560;2023-07-09T01:12:30;100721.50;;;19.96;83.20
34931;BME280;21134;49.646;8.560;2023-07-09T01:14:57;100715.59;;;19.92;83.52
34931;BME280;21134;49.646;8.560;2023-07-09T01:17:27;100714.88;;;19.87;83.90
34931;BME280;21134;49.646;8.560;2023-07-09T01:19:55;100718.50;;;19.83;83.87
34931;BME280;21134;49.646;8.560;2023-07-09T01:22:23;100715.91;;;19.83;83.53
34931;BME280;21134;49.646;8.560;2023-07-09T01:24:53;100716.00;;;19.80;83.60
34931;BME280;21134;49.646;8.560;2023-07-09T01:27:22;100719.41;;;19.82;83.65
34931;BME280;21134;49.646;8.560;2023-07-09T01:29:49;100723.69;;;19.83;83.76
34931;BME280;21134;49.646;8.560;2023-07-09T01:32:17;100717.69;;;19.81;83.66
34931;BME280;21134;49.646;8.560;2023-07-09T01:34:45;100719.34;;;19.84;83.60
34931;BME280;21134;49.646;8.560;2023-07-09T01:37:13;100719.56;;;19.78;83.93
34931;BME280;21134;49.646;8.560;2023-07-09T01:39:41;100719.63;;;19.76;83.81
34931;BME280;21134;49.646;8.560;2023-07-09T01:42:08;100724.94;;;19.73;83.51
34931;BME280;21134;49.646;8.560;2023-07-09T01:44:35;100720.75;;;19.69;83.54
34931;BME280;21134;49.646;8.560;2023-07-09T01:47:04;100723.25;;;19.72;83.63
34931;BME280;21134;49.646;8.560;2023-07-09T01:49:31;100724.19;;;19.69;83.71
34931;BME280;21134;49.646;8.560;2023-07-09T01:51:59;100727.53;;;19.73;83.71
34931;BME280;21134;49.646;8.560;2023-07-09T01:54:28;100722.28;;;19.74;83.28
34931;BME280;21134;49.646;8.560;2023-07-09T01:57:14;100722.44;;;19.70;83.71
34931;BME280;21134;49.646;8.560;2023-07-09T01:59:41;100721.59;;;19.69;83.78
34931;BME280;21134;49.646;8.560;2023-07-09T02:02:09;100717.28;;;19.68;83.51
34931;BME280;21134;49.646;8.560;2023-07-09T02:04:44;100716.44;;;19.68;83.57
34931;BME280;21134;49.646;8.560;2023-07-09T02:07:11;100720.09;;;19.62;84.02
34931;BME280;21134;49.646;8.560;2023-07-09T02:09:37;100726.97;;;19.63;84.08
34931;BME280;21134;49.646;8.560;2023-07-09T02:12:04;100722.59;;;19.65;83.67
34931;BME280;21134;49.646;8.560;2023-07-09T02:14:32;100722.59;;;19.65;83.86
34931;BME280;21134;49.646;8.560;2023-07-09T02:16:59;100719.88;;;19.68;84.03
34931;BME280;21134;49.646;8.560;2023-07-09T02:19:25;100723.34;;;19.69;83.81
34931;BME280;21134;49.646;8.560;2023-07-09T02:21:52;100722.47;;;19.68;83.85
34931;BME280;21134;49.646;8.560;2023-07-09T02:24:18;100711.34;;;19.65;83.92
34931;BME280;21134;49.646;8.560;2023-07-09T02:26:44;100721.72;;;19.66;83.92
34931;BME280;21134;49.646;8.560;2023-07-09T02:29:11;100717.34;;;19.67;83.93
34931;BME280;21134;49.646;8.560;2023-07-09T02:31:39;100717.47;;;19.64;84.27
34931;BME280;21134;49.646;8.560;2023-07-09T02:34:05;100715.78;;;19.61;84.26
34931;BME280;21134;49.646;8.560;2023-07-09T02:36:32;100717.41;;;19.65;84.06
34931;BME280;21134;49.646;8.560;2023-07-09T02:38:59;100712.28;;;19.64;83.89
34931;BME280;21134;49.646;8.560;2023-07-09T02:41:25;100716.69;;;19.60;84.04
34931;BME280;21134;49.646;8.560;2023-07-09T02:43:52;100719.31;;;19.59;84.17
34931;BME280;21134;49.646;8.560;2023-07-09T02:46:18;100726.44;;;19.54;84.34
34931;BME280;21134;49.646;8.560;2023-07-09T02:48:46;100722.31;;;19.48;84.35
34931;BME280;21134;49.646;8.560;2023-07-09T02:51:12;100724.06;;;19.47;84.63
34931;BME280;21134;49.646;8.560;2023-07-09T02:53:39;100725.75;;;19.48;84.97
34931;BME280;21134;49.646;8.560;2023-07-09T02:56:05;100726.66;;;19.47;85.37
34931;BME280;21134;49.646;8.560;2023-07-09T02:58:32;100725.84;;;19.45;85.34
34931;BME280;21134;49.646;8.560;2023-07-09T03:00:58;100726.84;;;19.41;85.40
34931;BME280;21134;49.646;8.560;2023-07-09T03:03:25;100722.69;;;19.37;85.48
34931;BME280;21134;49.646;8.560;2023-07-09T03:05:55;100722.63;;;19.39;85.56
34931;BME280;21134;49.646;8.560;2023-07-09T03:08:21;100721.81;;;19.37;84.99
34931;BME280;21134;49.646;8.560;2023-07-09T03:10:48;100730.59;;;19.33;85.31
34931;BME280;21134;49.646;8.560;2023-07-09T03:13:14;100734.94;;;19.32;85.62
34931;BME280;21134;49.646;8.560;2023-07-09T03:15:41;100724.03;;;19.22;86.37
34931;BME280;21134;49.646;8.560;2023-07-09T03:18:07;100732.63;;;19.24;86.19
34931;BME280;21134;49.646;8.560;2023-07-09T03:20:34;100731.81;;;19.22;86.43
34931;BME280;21134;49.646;8.560;2023-07-09T03:23:02;100744.03;;;19.19;86.86
34931;BME280;21134;49.646;8.560;2023-07-09T03:25:29;100745.81;;;19.17;86.73
34931;BME280;21134;49.646;8.560;2023-07-09T03:27:56;100747.75;;;19.12;86.76
34931;BME280;21134;49.646;8.560;2023-07-09T03:30:22;100754.81;;;19.07;86.91
34931;BME280;21134;49.646;8.560;2023-07-09T03:32:49;100750.75;;;18.98;86.95
34931;BME280;21134;49.646;8.560;2023-07-09T03:35:16;100755.94;;;18.98;87.18
34931;BME280;21134;49.646;8.560;2023-07-09T03:37:42;100750.06;;;18.93;87.46
34931;BME280;21134;49.646;8.560;2023-07-09T03:40:10;100750.91;;;18.93;87.50
34931;BME280;21134;49.646;8.560;2023-07-09T03:42:37;100756.94;;;18.94;87.17
34931;BME280;21134;49.646;8.560;2023-07-09T03:45:04;100758.59;;;18.96;87.28
34931;BME280;21134;49.646;8.560;2023-07-09T03:47:31;100759.44;;;18.97;87.24
34931;BME280;21134;49.646;8.560;2023-07-09T03:49:57;100767.97;;;19.00;87.09
34931;BME280;21134;49.646;8.560;2023-07-09T03:52:23;100766.38;;;18.96;87.11
34931;BME280;21134;49.646;8.560;2023-07-09T03:54:50;100769.16;;;18.90;87.49
34931;BME280;21134;49.646;8.560;2023-07-09T03:57:18;100773.53;;;18.88;87.46
34931;BME280;21134;49.646;8.560;2023-07-09T03:59:44;100769.34;;;18.84;87.62
34931;BME280;21134;49.646;8.560;2023-07-09T04:02:11;100766.75;;;18.84;87.37
34931;BME280;21134;49.646;8.560;2023-07-09T04:04:37;100767.47;;;18.89;87.53
34931;BME280;21134;49.646;8.560;2023-07-09T04:07:04;100767.41;;;18.91;87.63
34931;BME280;21134;49.646;8.560;2023-07-09T04:09:30;100768.31;;;18.90;87.74
34931;BME280;21134;49.646;8.560;2023-07-09T04:11:57;100775.25;;;18.89;87.64
34931;BME280;21134;49.646;8.560;2023-07-09T04:14:24;100776.97;;;18.89;88.18
34931;BME280;21134;49.646;8.560;2023-07-09T04:16:51;100777.84;;;18.89;88.25
34931;BME280;21134;49.646;8.560;2023-07-09T04:19:17;100774.44;;;18.87;88.16
34931;BME280;21134;49.646;8.560;2023-07-09T04:21:44;100773.31;;;18.96;87.76
34931;BME280;21134;49.646;8.560;2023-07-09T04:24:10;100779.09;;;19.04;87.43
34931;BME280;21134;49.646;8.560;2023-07-09T04:26:37;100776.31;;;19.10;87.10
34931;BME280;21134;49.646;8.560;2023-07-09T04:29:05;100783.97;;;19.15;86.92
34931;BME280;21134;49.646;8.560;2023-07-09T04:31:33;100776.81;;;19.21;86.56
34931;BME280;21134;49.646;8.560;2023-07-09T04:33:59;100779.34;;;19.23;86.50
34931;BME280;21134;49.646;8.560;2023-07-09T04:36:26;100778.34;;;19.27;86.12
34931;BME280;21134;49.646;8.560;2023-07-09T04:38:52;100783.34;;;19.33;86.31
34931;BME280;21134;49.646;8.560;2023-07-09T04:41:19;100781.34;;;19.41;86.26
34931;BME280;21134;49.646;8.560;2023-07-09T04:43:45;100783.00;;;19.44;86.24
34931;BME280;21134;49.646;8.560;2023-07-09T04:46:12;100787.47;;;19.40;86.38
34931;BME280;21134;49.646;8.560;2023-07-09T04:48:40;100793.28;;;19.47;86.44
34931;BME280;21134;49.646;8.560;2023-07-09T04:51:06;100791.16;;;19.58;86.19
34931;BME280;21134;49.646;8.560;2023-07-09T04:53:33;100796.09;;;19.67;86.03
34931;BME280;21134;49.646;8.560;2023-07-09T04:55:59;100790.66;;;19.75;86.08
34931;BME280;21134;49.646;8.560;2023-07-09T04:58:26;100786.03;;;19.83;85.92
34931;BME280;21134;49.646;8.560;2023-07-09T05:00:56;100787.47;;;19.92;85.76
34931;BME280;21134;49.646;8.560;2023-07-09T05:03:22;100789.75;;;20.01;85.73
34931;BME280;21134;49.646;8.560;2023-07-09T05:05:50;100794.66;;;20.09;85.54
34931;BME280;21134;49.646;8.560;2023-07-09T05:08:17;100796.97;;;20.16;85.08
34931;BME280;21134;49.646;8.560;2023-07-09T05:10:44;100800.31;;;20.20;84.94
34931;BME280;21134;49.646;8.560;2023-07-09T05:13:11;100803.47;;;20.28;84.82
34931;BME280;21134;49.646;8.560;2023-07-09T05:15:40;100804.94;;;20.35;83.85
34931;BME280;21134;49.646;8.560;2023-07-09T05:18:07;100797.72;;;20.43;83.78
34931;BME280;21134;49.646;8.560;2023-07-09T05:20:34;100804.38;;;20.52;82.04
34931;BME280;21134;49.646;8.560;2023-07-09T05:23:02;100806.44;;;20.66;81.80
34931;BME280;21134;49.646;8.560;2023-07-09T05:25:29;100807.88;;;20.75;82.14
34931;BME280;21134;49.646;8.560;2023-07-09T05:27:55;100806.63;;;20.83;81.25
34931;BME280;21134;49.646;8.560;2023-07-09T05:30:22;100805.44;;;20.92;80.95
34931;BME280;21134;49.646;8.560;2023-07-09T05:32:49;100809.50;;;20.99;80.64
34931;BME280;21134;49.646;8.560;2023-07-09T05:35:15;100813.50;;;21.08;80.04
34931;BME280;21134;49.646;8.560;2023-07-09T05:37:42;100808.91;;;21.14;79.94
34931;BME280;21134;49.646;8.560;2023-07-09T05:40:10;100812.78;;;21.26;79.29
34931;BME280;21134;49.646;8.560;2023-07-09T05:42:36;100809.00;;;21.35;78.31
34931;BME280;21134;49.646;8.560;2023-07-09T05:45:04;100802.25;;;21.51;75.75
34931;BME280;21134;49.646;8.560;2023-07-09T05:47:31;100806.03;;;21.65;75.00
34931;BME280;21134;49.646;8.560;2023-07-09T05:49:57;100805.56;;;21.75;74.32
34931;BME280;21134;49.646;8.560;2023-07-09T05:52:24;100805.13;;;21.86;74.36
34931;BME280;21134;49.646;8.560;2023-07-09T05:54:51;100802.69;;;22.02;73.79
34931;BME280;21134;49.646;8.560;2023-07-09T05:57:19;100801.25;;;22.15;73.58
34931;BME280;21134;49.646;8.560;2023-07-09T05:59:46;100806.66;;;22.31;73.34
34931;BME280;21134;49.646;8.560;2023-07-09T06:02:13;100805.09;;;22.46;72.50
34931;BME280;21134;49.646;8.560;2023-07-09T06:04:40;100802.91;;;22.56;72.05
34931;BME280;21134;49.646;8.560;2023-07-09T06:07:07;100808.63;;;22.64;72.12
34931;BME280;21134;49.646;8.560;2023-07-09T06:09:34;100802.91;;;22.74;70.78
34931;BME280;21134;49.646;8.560;2023-07-09T06:12:01;100810.56;;;22.98;69.68
34931;BME280;21134;49.646;8.560;2023-07-09T06:14:29;100800.44;;;23.09;69.08
34931;BME280;21134;49.646;8.560;2023-07-09T06:16:57;100801.66;;;23.02;69.77
34931;BME280;21134;49.646;8.560;2023-07-09T06:19:24;100800.66;;;23.05;70.07
34931;BME280;21134;49.646;8.560;2023-07-09T06:21:50;100803.72;;;23.13;70.15
34931;BME280;21134;49.646;8.560;2023-07-09T06:24:17;100804.28;;;23.19;68.63
34931;BME280;21134;49.646;8.560;2023-07-09T06:26:44;100812.50;;;23.29;66.09
34931;BME280;21134;49.646;8.560;2023-07-09T06:29:10;100807.13;;;23.32;65.79
34931;BME280;21134;49.646;8.560;2023-07-09T06:31:38;100809.44;;;23.38;66.36
34931;BME280;21134;49.646;8.560;2023-07-09T06:34:05;100806.47;;;23.46;66.79
34931;BME280;21134;49.646;8.560;2023-07-09T06:36:33;100817.31;;;23.56;66.01
34931;BME280;21134;49.646;8.560;2023-07-09T06:39:00;100822.97;;;23.64;65.10
34931;BME280;21134;49.646;8.560;2023-07-09T06:41:26;100827.09;;;23.70;64.77
34931;BME280;21134;49.646;8.560;2023-07-09T06:43:53;100825.38;;;23.86;64.58
34931;BME280;21134;49.646;8.560;2023-07-09T06:46:20;100821.31;;;23.98;64.45
34931;BME280;21134;49.646;8.560;2023-07-09T06:48:48;100818.13;;;24.08;63.85
34931;BME280;21134;49.646;8.560;2023-07-09T06:51:14;100821.97;;;24.19;64.12
34931;BME280;21134;49.646;8.560;2023-07-09T06:53:41;100820.81;;;24.40;63.07
34931;BME280;21134;49.646;8.560;2023-07-09T06:56:08;100821.38;;;24.47;63.90
34931;BME280;21134;49.646;8.560;2023-07-09T06:58:36;100816.31;;;24.59;63.13
34931;BME280;21134;49.646;8.560;2023-07-09T07:01:04;100818.88;;;24.77;62.08
34931;BME280;21134;49.646;8.560;2023-07-09T07:03:32;100826.78;;;24.91;62.38
34931;BME280;21134;49.646;8.560;2023-07-09T07:06:00;100819.09;;;25.04;61.50
34931;BME280;21134;49.646;8.560;2023-07-09T07:08:27;100825.94;;;25.22;61.51
34931;BME280;21134;49.646;8.560;2023-07-09T07:10:55;100829.19;;;25.42;60.49
34931;BME280;21134;49.646;8.560;2023-07-09T07:13:27;100821.97;;;25.61;60.61
34931;BME280;21134;49.646;8.560;2023-07-09T07:15:54;100829.72;;;25.93;59.21
34931;BME280;21134;49.646;8.560;2023-07-09T07:18:20;100822.81;;;26.20;57.42
34931;BME280;21134;49.646;8.560;2023-07-09T07:20:47;100825.63;;;26.32;57.45
34931;BME280;21134;49.646;8.560;2023-07-09T07:23:15;100819.44;;;26.47;55.83
34931;BME280;21134;49.646;8.560;2023-07-09T07:25:41;100815.31;;;26.57;54.69
34931;BME280;21134;49.646;8.560;2023-07-09T07:28:08;100816.59;;;26.79;54.85
34931;BME280;21134;49.646;8.560;2023-07-09T07:30:34;100809.53;;;26.94;54.32
34931;BME280;21134;49.646;8.560;2023-07-09T07:33:01;100814.34;;;27.14;54.39
34931;BME280;21134;49.646;8.560;2023-07-09T07:35:27;100809.28;;;27.38;53.80
34931;BME280;21134;49.646;8.560;2023-07-09T07:37:54;100805.38;;;27.56;53.10
34931;BME280;21134;49.646;8.560;2023-07-09T07:40:22;100810.00;;;27.80;52.85
34931;BME280;21134;49.646;8.560;2023-07-09T07:42:48;100811.47;;;27.97;51.87
34931;BME280;21134;49.646;8.560;2023-07-09T07:45:16;100800.94;;;28.10;51.60
34931;BME280;21134;49.646;8.560;2023-07-09T07:47:42;100807.63;;;28.26;50.87
34931;BME280;21134;49.646;8.560;2023-07-09T07:50:09;100802.56;;;28.36;50.22
34931;BME280;21134;49.646;8.560;2023-07-09T07:52:36;100799.84;;;28.50;50.26
34931;BME280;21134;49.646;8.560;2023-07-09T07:55:03;100800.38;;;28.80;48.77
34931;BME280;21134;49.646;8.560;2023-07-09T07:57:32;100796.94;;;28.90;48.58
34931;BME280;21134;49.646;8.560;2023-07-09T07:59:58;100799.22;;;29.08;46.85
34931;BME280;21134;49.646;8.560;2023-07-09T08:02:25;100803.44;;;29.10;47.66
34931;BME280;21134;49.646;8.560;2023-07-09T08:04:51;100794.94;;;29.18;46.22
34931;BME280;21134;49.646;8.560;2023-07-09T08:07:19;100802.03;;;29.29;47.10
34931;BME280;21134;49.646;8.560;2023-07-09T08:09:46;100798.16;;;29.46;46.69
34931;BME280;21134;49.646;8.560;2023-07-09T08:12:13;100800.38;;;29.63;46.36
34931;BME280;21134;49.646;8.560;2023-07-09T08:14:42;100799.56;;;29.85;46.12
34931;BME280;21134;49.646;8.560;2023-07-09T08:17:11;100801.03;;;30.00;45.94
34931;BME280;21134;49.646;8.560;2023-07-09T08:19:45;100803.19;;;30.18;45.72
34931;BME280;21134;49.646;8.560;2023-07-09T08:22:13;100796.00;;;30.31;45.98
34931;BME280;21134;49.646;8.560;2023-07-09T08:24:40;100801.28;;;30.42;45.47
34931;BME280;21134;49.646;8.560;2023-07-09T08:27:07;100790.34;;;30.58;45.77
34931;BME280;21134;49.646;8.560;2023-07-09T08:29:34;100791.59;;;30.75;45.65
34931;BME280;21134;49.646;8.560;2023-07-09T08:32:02;100778.00;;;30.91;45.37
34931;BME280;21134;49.646;8.560;2023-07-09T08:34:29;100780.13;;;31.08;45.35
34931;BME280;21134;49.646;8.560;2023-07-09T08:36:56;100777.53;;;31.18;44.85
34931;BME280;21134;49.646;8.560;2023-07-09T08:39:23;100779.53;;;31.37;44.37
34931;BME280;21134;49.646;8.560;2023-07-09T08:41:55;100783.75;;;31.49;43.82
34931;BME280;21134;49.646;8.560;2023-07-09T08:44:37;100785.75;;;31.57;44.20
34931;BME280;21134;49.646;8.560;2023-07-09T08:47:17;100781.50;;;31.65;44.58
34931;BME280;21134;49.646;8.560;2023-07-09T08:49:49;100774.63;;;31.84;43.46
34931;BME280;21134;49.646;8.560;2023-07-09T08:52:24;100778.22;;;32.04;42.80
34931;BME280;21134;49.646;8.560;2023-07-09T08:54:53;100787.91;;;32.24;42.60
34931;BME280;21134;49.646;8.560;2023-07-09T08:57:25;100784.56;;;32.32;43.37
34931;BME280;21134;49.646;8.560;2023-07-09T08:59:57;100782.59;;;32.55;42.67
34931;BME280;21134;49.646;8.560;2023-07-09T09:02:34;100783.00;;;32.70;42.37
34931;BME280;21134;49.646;8.560;2023-07-09T09:05:02;100782.34;;;32.87;41.64
34931;BME280;21134;49.646;8.560;2023-07-09T09:07:39;100785.03;;;33.06;41.16
34931;BME280;21134;49.646;8.560;2023-07-09T09:10:11;100781.09;;;33.10;40.40
34931;BME280;21134;49.646;8.560;2023-07-09T09:12:52;100772.44;;;33.08;40.31
34931;BME280;21134;49.646;8.560;2023-07-09T09:15:24;100769.78;;;33.18;40.51
34931;BME280;21134;49.646;8.560;2023-07-09T09:17:56;100775.38;;;33.15;39.71
34931;BME280;21134;49.646;8.560;2023-07-09T09:20:24;100774.97;;;33.20;41.33
34931;BME280;21134;49.646;8.560;2023-07-09T09:22:56;100778.16;;;33.33;40.44
34931;BME280;21134;49.646;8.560;2023-07-09T09:25:28;100770.88;;;33.45;39.67
34931;BME280;21134;49.646;8.560;2023-07-09T09:27:56;100773.53;;;33.54;39.94
34931;BME280;21134;49.646;8.560;2023-07-09T09:30:24;100772.81;;;33.62;41.21
34931;BME280;21134;49.646;8.560;2023-07-09T09:32:55;100769.69;;;33.76;39.73
34931;BME280;21134;49.646;8.560;2023-07-09T09:35:26;100769.78;;;33.85;39.45
34931;BME280;21134;49.646;8.560;2023-07-09T09:37:54;100768.22;;;33.92;40.57
34931;BME280;21134;49.646;8.560;2023-07-09T09:40:23;100759.34;;;34.11;39.65
34931;BME280;21134;49.646;8.560;2023-07-09T09:42:50;100763.47;;;34.23;38.23
34931;BME280;21134;49.646;8.560;2023-07-09T09:45:20;100776.28;;;34.37;38.54
34931;BME280;21134;49.646;8.560;2023-07-09T09:47:48;100775.75;;;34.52;37.63
34931;BME280;21134;49.646;8.560;2023-07-09T09:50:17;100781.25;;;34.68;36.66
34931;BME280;21134;49.646;8.560;2023-07-09T09:52:47;100774.06;;;34.60;37.21
34931;BME280;21134;49.646;8.560;2023-07-09T09:55:17;100771.09;;;34.36;37.82
34931;BME280;21134;49.646;8.560;2023-07-09T09:57:49;100774.91;;;34.51;37.82
34931;BME280;21134;49.646;8.560;2023-07-09T10:00:17;100764.66;;;34.66;37.23
34931;BME280;21134;49.646;8.560;2023-07-09T10:02:44;100765.31;;;34.68;37.48
34931;BME280;21134;49.646;8.560;2023-07-09T10:05:12;100759.69;;;34.89;37.26
34931;BME280;21134;49.646;8.560;2023-07-09T10:07:43;100761.06;;;34.93;36.76
34931;BME280;21134;49.646;8.560;2023-07-09T10:10:14;100761.38;;;35.08;36.18
34931;BME280;21134;49.646;8.560;2023-07-09T10:12:48;100753.44;;;35.16;36.46
34931;BME280;21134;49.646;8.560;2023-07-09T10:15:29;100743.66;;;35.16;36.18
34931;BME280;21134;49.646;8.560;2023-07-09T10:18:01;100745.59;;;35.32;35.72
34931;BME280;21134;49.646;8.560;2023-07-09T10:20:34;100735.16;;;35.39;36.06
34931;BME280;21134;49.646;8.560;2023-07-09T10:23:14;100737.38;;;35.26;35.04
34931;BME280;21134;49.646;8.560;2023-07-09T10:25:48;100743.41;;;35.28;34.54
34931;BME280;21134;49.646;8.560;2023-07-09T10:28:31;100730.47;;;35.33;35.49
34931;BME280;21134;49.646;8.560;2023-07-09T10:31:07;100735.88;;;35.49;34.45
34931;BME280;21134;49.646;8.560;2023-07-09T10:33:48;100730.81;;;35.64;33.79
34931;BME280;21134;49.646;8.560;2023-07-09T10:36:25;100728.19;;;35.72;34.76
34931;BME280;21134;49.646;8.560;2023-07-09T10:39:00;100726.41;;;35.81;33.50
34931;BME280;21134;49.646;8.560;2023-07-09T10:41:30;100722.88;;;35.72;33.21
34931;BME280;21134;49.646;8.560;2023-07-09T10:44:00;100714.81;;;35.90;33.50
34931;BME280;21134;49.646;8.560;2023-07-09T10:46:32;100716.88;;;36.04;32.53
34931;BME280;21134;49.646;8.560;2023-07-09T10:49:01;100727.56;;;36.13;31.09
34931;BME280;21134;49.646;8.560;2023-07-09T10:51:36;100719.91;;;36.09;30.65
34931;BME280;21134;49.646;8.560;2023-07-09T10:54:12;100718.06;;;36.18;30.86
34931;BME280;21134;49.646;8.560;2023-07-09T10:56:42;100709.88;;;36.12;30.10
34931;BME280;21134;49.646;8.560;2023-07-09T10:59:20;100707.84;;;35.97;30.94
34931;BME280;21134;49.646;8.560;2023-07-09T11:01:51;100704.47;;;35.87;31.51
34931;BME280;21134;49.646;8.560;2023-07-09T11:04:28;100706.00;;;35.98;32.07
34931;BME280;21134;49.646;8.560;2023-07-09T11:07:02;100700.63;;;36.32;30.81
34931;BME280;21134;49.646;8.560;2023-07-09T11:09:35;100703.31;;;36.48;29.93
34931;BME280;21134;49.646;8.560;2023-07-09T11:12:07;100696.50;;;36.54;30.12
34931;BME280;21134;49.646;8.560;2023-07-09T11:14:43;100688.13;;;36.49;30.77
34931;BME280;21134;49.646;8.560;2023-07-09T11:17:20;100689.19;;;36.64;31.50
34931;BME280;21134;49.646;8.560;2023-07-09T11:19:54;100689.66;;;36.60;29.76
34931;BME280;21134;49.646;8.560;2023-07-09T11:22:26;100683.31;;;36.69;28.76
34931;BME280;21134;49.646;8.560;2023-07-09T11:25:08;100685.69;;;36.80;29.56
34931;BME280;21134;49.646;8.560;2023-07-09T11:27:45;100686.66;;;36.79;29.50
34931;BME280;21134;49.646;8.560;2023-07-09T11:30:20;100684.66;;;36.89;29.25
34931;BME280;21134;49.646;8.560;2023-07-09T11:32:52;100679.00;;;37.00;29.52
34931;BME280;21134;49.646;8.560;2023-07-09T11:35:22;100682.16;;;37.04;29.17
34931;BME280;21134;49.646;8.560;2023-07-09T11:37:49;100671.63;;;37.11;28.46
34931;BME280;21134;49.646;8.560;2023-07-09T11:40:17;100678.28;;;37.23;28.88
34931;BME280;21134;49.646;8.560;2023-07-09T11:42:50;100681.94;;;37.30;29.43
34931;BME280;21134;49.646;8.560;2023-07-09T11:45:20;100677.75;;;37.36;27.53
34931;BME280;21134;49.646;8.560;2023-07-09T11:47:55;100681.44;;;37.35;27.87
34931;BME280;21134;49.646;8.560;2023-07-09T11:50:30;100674.25;;;37.35;28.30
34931;BME280;21134;49.646;8.560;2023-07-09T11:52:59;100672.22;;;37.54;28.12
34931;BME280;21134;49.646;8.560;2023-07-09T11:55:33;100681.53;;;37.58;28.15
34931;BME280;21134;49.646;8.560;2023-07-09T11:58:03;100663.50;;;37.60;28.39
34931;BME280;21134;49.646;8.560;2023-07-09T12:00:37;100670.00;;;37.65;28.07
34931;BME280;21134;49.646;8.560;2023-07-09T12:03:06;100671.53;;;37.52;27.57
34931;BME280;21134;49.646;8.560;2023-07-09T12:05:33;100664.38;;;37.52;29.03
34931;BME280;21134;49.646;8.560;2023-07-09T12:08:00;100652.44;;;37.71;28.98
34931;BME280;21134;49.646;8.560;2023-07-09T12:10:32;100655.63;;;37.66;28.58
34931;BME280;21134;49.646;8.560;2023-07-09T12:13:00;100653.09;;;37.73;27.52
34931;BME280;21134;49.646;8.560;2023-07-09T12:15:29;100650.91;;;37.77;28.29
34931;BME280;21134;49.646;8.560;2023-07-09T12:17:58;100650.88;;;37.85;27.96
34931;BME280;21134;49.646;8.560;2023-07-09T12:20:26;100645.81;;;37.98;27.02
34931;BME280;21134;49.646;8.560;2023-07-09T12:22:55;100635.03;;;38.06;27.66
34931;BME280;21134;49.646;8.560;2023-07-09T12:25:24;100639.88;;;38.11;27.74
34931;BME280;21134;49.646;8.560;2023-07-09T12:27:53;100633.69;;;38.10;27.43
34931;BME280;21134;49.646;8.560;2023-07-09T12:30:20;100632.22;;;38.08;27.05
34931;BME280;21134;49.646;8.560;2023-07-09T12:32:48;100616.09;;;37.93;26.83
34931;BME280;21134;49.646;8.560;2023-07-09T12:35:18;100629.59;;;38.00;27.29
34931;BME280;21134;49.646;8.560;2023-07-09T12:37:46;100622.47;;;37.92;27.71
34931;BME280;21134;49.646;8.560;2023-07-09T12:40:16;100612.44;;;37.86;26.35
34931;BME280;21134;49.646;8.560;2023-07-09T12:42:43;100605.44;;;37.85;26.44
34931;BME280;21134;49.646;8.560;2023-07-09T12:45:16;100608.28;;;37.83;26.17
34931;BME280;21134;49.646;8.560;2023-07-09T12:47:44;100602.16;;;37.75;26.62
34931;BME280;21134;49.646;8.560;2023-07-09T12:50:19;100600.91;;;37.62;26.46
34931;BME280;21134;49.646;8.560;2023-07-09T12:52:46;100590.94;;;37.56;27.04
34931;BME280;21134;49.646;8.560;2023-07-09T12:55:21;100589.78;;;37.51;27.53
34931;BME280;21134;49.646;8.560;2023-07-09T12:57:48;100589.69;;;37.67;27.82
34931;BME280;21134;49.646;8.560;2023-07-09T13:00:21;100586.72;;;37.93;25.89